Time;durP1;ratioP1;P1;durP2;ratioP2;P2;SDS_P1;SDS_P2;PMS_P1;PMS_P2;Temp;Humidity;BMP_temperature;BMP_pressure;BME280_temperature;BME280_humidity;BME280_pressure;Samples;Min_cycle;Max_cycle;Signal;HPM_P1;HPM_P2
2023/07/10 00:01:26;;;;;;;9.52;3.67;;;;;;;;;;4991627;28;93695;-76
2023/07/10 00:03:52;;;;;;;9.07;3.65;;;;;;;;;;4989325;28;93254;-76
2023/07/10 00:06:19;;;;;;;;;;;;;;;;;;4994303;28;92374;-76
2023/07/10 00:08:46;;;;;;;10.18;4.10;;;;;;;;;;4990632;28;97456;-76
2023/07/10 00:11:15;;;;;;;10.80;4.10;;;;;;;;;;4991904;28;92293;-76
2023/07/10 00:13:42;;;;;;;9.20;3.50;;;;;;;;;;4989833;28;93276;-76
2023/07/10 00:16:13;;;;;;;8.68;3.40;;;;;;;;;;4989118;28;93034;-76
2023/07/10 00:18:40;;;;;;;7.53;3.40;;;;;;;;;;4987178;28;95399;-76
2023/07/10 00:21:06;;;;;;;9.27;3.50;;;;;;;;;;4989979;28;95694;-76
2023/07/10 00:23:33;;;;;;;9.18;3.50;;;;;;;;;;4997579;28;94334;-76
2023/07/10 00:25:59;;;;;;;9.27;3.17;;;;;;;;;;4993420;28;92511;-76
2023/07/10 00:28:26;;;;;;;8.73;3.20;;;;;;;;;;4989545;28;93724;-76
2023/07/10 00:30:54;;;;;;;8.82;3.40;;;;;;;;;;4988483;28;93120;-76
2023/07/10 00:33:20;;;;;;;10.50;3.55;;;;;;;;;;4989773;28;92691;-76
2023/07/10 00:35:47;;;;;;;13.70;3.33;;;;;;;;;;4989872;28;92352;-76
2023/07/10 00:38:27;;;;;;;8.77;3.28;;;;;;;;;;4983793;28;92414;-76
2023/07/10 00:40:55;;;;;;;13.38;3.45;;;;;;;;;;4990992;28;92897;-76
2023/07/10 00:43:27;;;;;;;8.73;2.90;;;;;;;;;;4985620;28;98248;-76
2023/07/10 00:45:55;;;;;;;9.80;3.20;;;;;;;;;;4988352;28;92563;-76
2023/07/10 00:48:27;;;;;;;8.45;3.30;;;;;;;;;;4992358;28;93895;-76
2023/07/10 00:50:55;;;;;;;7.25;3.17;;;;;;;;;;4989375;28;92517;-76
2023/07/10 00:53:29;;;;;;;9.60;3.25;;;;;;;;;;4990763;28;95045;-76
2023/07/10 00:55:57;;;;;;;8.32;3.25;;;;;;;;;;4993342;28;94280;-76
2023/07/10 00:58:29;;;;;;;7.25;3.08;;;;;;;;;;4971584;28;92462;-76
2023/07/10 01:01:02;;;;;;;7.60;2.90;;;;;;;;;;4988449;28;95392;-76
2023/07/10 01:03:29;;;;;;;;;;;;;;;;;;4985717;28;93102;-76
2023/07/10 01:06:04;;;;;;;9.43;3.00;;;;;;;;;;4977358;28;106514;-76
2023/07/10 01:08:31;;;;;;;8.95;3.20;;;;;;;;;;4987130;28;94840;-76
2023/07/10 01:10:59;;;;;;;8.80;2.85;;;;;;;;;;4990871;28;93151;-76
2023/07/10 01:13:25;;;;;;;8.02;2.75;;;;;;;;;;4987203;28;96048;-76
2023/07/10 01:15:52;;;;;;;7.32;2.70;;;;;;;;;;4971734;28;94912;-76
2023/07/10 01:18:18;;;;;;;8.35;2.90;;;;;;;;;;4987583;28;92422;-76
2023/07/10 01:20:49;;;;;;;7.40;2.67;;;;;;;;;;4984388;28;92812;-76
2023/07/10 01:23:18;;;;;;;8.05;2.90;;;;;;;;;;4987228;28;93822;-76
2023/07/10 01:25:48;;;;;;;7.30;2.95;;;;;;;;;;4992666;28;91736;-76
2023/07/10 01:28:15;;;;;;;7.82;2.53;;;;;;;;;;4991896;28;92420;-76
2023/07/10 01:30:43;;;;;;;8.98;2.95;;;;;;;;;;4991980;28;93637;-76
2023/07/10 01:33:18;;;;;;;7.72;2.80;;;;;;;;;;4990845;28;94797;-76
2023/07/10 01:35:47;;;;;;;7.05;2.95;;;;;;;;;;4991822;28;93178;-78
2023/07/10 01:38:14;;;;;;;7.93;3.00;;;;;;;;;;4994543;28;92874;-76
2023/07/10 01:40:43;;;;;;;11.43;3.10;;;;;;;;;;4976083;28;94225;-76
2023/07/10 01:43:09;;;;;;;7.63;3.00;;;;;;;;;;4988680;28;93495;-76
2023/07/10 01:45:41;;;;;;;9.25;3.17;;;;;;;;;;4988949;28;93019;-76
2023/07/10 01:48:07;;;;;;;7.05;2.92;;;;;;;;;;4985902;28;97676;-76
2023/07/10 01:50:34;;;;;;;7.63;3.42;;;;;;;;;;4989479;28;92557;-76
2023/07/10 01:53:01;;;;;;;9.40;3.10;;;;;;;;;;4988725;28;92468;-76
2023/07/10 01:55:29;;;;;;;9.50;3.45;;;;;;;;;;4999528;28;94473;-76
2023/07/10 01:57:55;;;;;;;9.95;3.13;;;;;;;;;;4985126;28;95712;-76
2023/07/10 02:00:22;;;;;;;10.10;3.90;;;;;;;;;;4986325;28;97647;-76
2023/07/10 02:02:50;;;;;;;8.93;3.60;;;;;;;;;;4977586;28;95685;-76
2023/07/10 02:05:16;;;;;;;7.82;3.13;;;;;;;;;;4988054;28;92502;-76
2023/07/10 02:07:45;;;;;;;10.45;3.35;;;;;;;;;;4986048;28;95703;-76
2023/07/10 02:10:11;;;;;;;7.90;3.42;;;;;;;;;;4985325;28;95941;-76
2023/07/10 02:12:38;;;;;;;8.88;3.22;;;;;;;;;;4986919;28;92894;-76
2023/07/10 02:15:05;;;;;;;9.02;3.70;;;;;;;;;;4991916;28;92829;-76
2023/07/10 02:17:31;;;;;;;9.20;3.60;;;;;;;;;;4988111;28;92494;-76
2023/07/10 02:19:58;;;;;;;8.02;3.20;;;;;;;;;;4987563;28;92701;-76
2023/07/10 02:22:25;;;;;;;12.20;3.50;;;;;;;;;;4986478;28;95836;-76
2023/07/10 02:24:52;;;;;;;11.07;3.17;;;;;;;;;;4976580;28;92506;-75
2023/07/10 02:27:19;;;;;;;8.80;3.40;;;;;;;;;;4988133;28;92813;-76
2023/07/10 02:29:46;;;;;;;10.95;3.50;;;;;;;;;;4988328;28;93362;-76
2023/07/10 02:32:12;;;;;;;10.80;3.58;;;;;;;;;;4986275;28;92993;-76
2023/07/10 02:34:39;;;;;;;8.77;3.38;;;;;;;;;;4986515;28;95606;-76
2023/07/10 02:37:06;;;;;;;8.20;3.38;;;;;;;;;;4990021;28;93620;-76
2023/07/10 02:39:33;;;;;;;9.95;3.53;;;;;;;;;;4997621;28;92083;-76
2023/07/10 02:42:00;;;;;;;9.48;3.65;;;;;;;;;;4986281;28;93043;-76
2023/07/10 02:44:26;;;;;;;7.25;3.55;;;;;;;;;;4977406;28;92621;-77
2023/07/10 02:46:53;;;;;;;7.63;2.83;;;;;;;;;;4987867;28;95696;-76
2023/07/10 02:49:19;;;;;;;8.68;3.00;;;;;;;;;;4991405;28;93877;-76
2023/07/10 02:51:46;;;;;;;6.72;2.67;;;;;;;;;;4986877;28;93364;-77
2023/07/10 02:54:13;;;;;;;6.72;2.88;;;;;;;;;;5002267;28;92822;-77
2023/07/10 02:56:39;;;;;;;;;;;;;;;;;;4990456;28;94979;-77
2023/07/10 02:59:06;;;;;;;7.30;3.00;;;;;;;;;;4988973;28;99867;-76
2023/07/10 03:01:32;;;;;;;7.55;3.20;;;;;;;;;;4991309;28;93488;-77
2023/07/10 03:03:59;;;;;;;8.43;3.58;;;;;;;;;;4992145;28;92054;-77
2023/07/10 03:06:27;;;;;;;8.80;3.38;;;;;;;;;;4991739;28;92815;-77
2023/07/10 03:08:53;;;;;;;7.88;3.53;;;;;;;;;;4997192;28;94042;-76
2023/07/10 03:11:21;;;;;;;8.35;3.60;;;;;;;;;;4989544;28;94870;-77
2023/07/10 03:13:47;;;;;;;8.48;3.50;;;;;;;;;;4980757;28;97972;-77
2023/07/10 03:16:14;;;;;;;6.85;3.00;;;;;;;;;;4986789;28;93126;-77
2023/07/10 03:18:41;;;;;;;9.23;3.40;;;;;;;;;;4991124;28;92865;-77
2023/07/10 03:21:08;;;;;;;8.55;3.25;;;;;;;;;;4993904;28;92734;-77
2023/07/10 03:23:35;;;;;;;7.25;3.25;;;;;;;;;;4993028;28;92863;-77
2023/07/10 03:26:02;;;;;;;6.63;3.28;;;;;;;;;;4986464;28;95759;-76
2023/07/10 03:28:33;;;;;;;8.35;3.40;;;;;;;;;;4988410;28;92401;-77
2023/07/10 03:30:59;;;;;;;6.35;2.90;;;;;;;;;;4993020;28;92531;-76
2023/07/10 03:33:26;;;;;;;7.22;3.15;;;;;;;;;;4991289;28;92828;-76
2023/07/10 03:35:59;;;;;;;9.30;3.42;;;;;;;;;;4987614;28;98708;-77
2023/07/10 03:38:26;;;;;;;9.02;3.50;;;;;;;;;;4990917;28;92794;-76
2023/07/10 03:40:54;;;;;;;9.35;3.53;;;;;;;;;;4981867;28;92804;-76
2023/07/10 03:43:21;;;;;;;9.25;3.60;;;;;;;;;;4991287;28;93144;-76
2023/07/10 03:45:47;;;;;;;9.30;3.20;;;;;;;;;;4989003;28;94168;-76
2023/07/10 03:48:14;;;;;;;9.70;3.20;;;;;;;;;;4990182;28;93052;-77
2023/07/10 03:50:41;;;;;;;7.07;3.30;;;;;;;;;;4990382;28;92412;-76
2023/07/10 03:53:07;;;;;;;8.10;3.20;;;;;;;;;;4981440;28;92514;-76
2023/07/10 03:55:34;;;;;;;8.00;3.08;;;;;;;;;;4999854;28;93256;-76
2023/07/10 03:58:00;;;;;;;8.95;3.03;;;;;;;;;;4988209;28;92653;-76
2023/07/10 04:00:27;;;;;;;8.20;3.30;;;;;;;;;;4988710;28;94877;-76
2023/07/10 04:02:53;;;;;;;8.32;3.33;;;;;;;;;;4989248;28;93629;-76
2023/07/10 04:05:20;;;;;;;8.27;3.45;;;;;;;;;;4993279;28;92904;-77
2023/07/10 04:07:47;;;;;;;8.15;3.20;;;;;;;;;;4984773;28;95706;-77
2023/07/10 04:10:13;;;;;;;9.57;3.30;;;;;;;;;;4996407;28;93051;-76
2023/07/10 04:12:41;;;;;;;8.68;3.38;;;;;;;;;;4992138;28;92922;-77
2023/07/10 04:15:08;;;;;;;8.60;3.30;;;;;;;;;;4989704;28;93835;-76
2023/07/10 04:17:34;;;;;;;8.10;3.10;;;;;;;;;;4990078;28;91874;-76
2023/07/10 04:20:01;;;;;;;;;;;;;;;;;;4989521;28;93094;-77
2023/07/10 04:22:28;;;;;;;6.28;2.90;;;;;;;;;;4987214;28;92943;-77
2023/07/10 04:24:55;;;;;;;6.72;2.90;;;;;;;;;;4991209;28;95194;-77
2023/07/10 04:27:21;;;;;;;7.82;3.22;;;;;;;;;;4989211;28;92405;-76
2023/07/10 04:29:48;;;;;;;8.40;3.45;;;;;;;;;;4989228;28;92536;-76
2023/07/10 04:32:14;;;;;;;8.38;3.42;;;;;;;;;;4987919;28;95579;-76
2023/07/10 04:34:41;;;;;;;7.13;2.80;;;;;;;;;;4989063;28;93222;-76
2023/07/10 04:37:07;;;;;;;7.20;2.83;;;;;;;;;;4982137;28;92465;-77
2023/07/10 04:39:34;;;;;;;9.30;2.90;;;;;;;;;;4989780;28;92674;-77
2023/07/10 04:42:00;;;;;;;7.53;2.95;;;;;;;;;;4989408;28;92308;-77
2023/07/10 04:44:27;;;;;;;7.85;2.90;;;;;;;;;;4989521;28;92888;-76
2023/07/10 04:46:53;;;;;;;8.07;2.88;;;;;;;;;;4989869;28;96304;-76
2023/07/10 04:49:20;;;;;;;9.57;3.17;;;;;;;;;;4985381;28;94874;-77
2023/07/10 04:51:46;;;;;;;6.47;2.33;;;;;;;;;;4980575;28;98058;-76
2023/07/10 04:54:13;;;;;;;7.55;2.45;;;;;;;;;;4986818;28;93068;-76
2023/07/10 04:56:40;;;;;;;7.82;2.40;;;;;;;;;;4997291;28;92532;-77
2023/07/10 04:59:06;;;;;;;5.72;2.35;;;;;;;;;;4987382;28;94258;-78
2023/07/10 05:01:33;;;;;;;11.98;2.60;;;;;;;;;;4988319;28;93111;-75
2023/07/10 05:04:00;;;;;;;;;;;;;;;;;;4982695;28;93273;-76
2023/07/10 05:06:27;;;;;;;6.60;2.60;;;;;;;;;;4988492;28;112416;-76
2023/07/10 05:08:54;;;;;;;7.55;2.20;;;;;;;;;;4988453;28;93191;-76
2023/07/10 05:11:22;;;;;;;7.20;2.30;;;;;;;;;;4999394;28;92602;-76
2023/07/10 05:13:48;;;;;;;5.32;1.98;;;;;;;;;;4986380;28;95454;-76
2023/07/10 05:16:15;;;;;;;6.18;2.08;;;;;;;;;;4987346;28;92458;-76
2023/07/10 05:18:42;;;;;;;8.93;2.85;;;;;;;;;;4984125;28;92830;-77
2023/07/10 05:21:09;;;;;;;9.25;2.70;;;;;;;;;;4988354;28;93057;-76
2023/07/10 05:23:35;;;;;;;8.35;2.30;;;;;;;;;;4990671;28;92487;-76
2023/07/10 05:26:07;;;;;;;7.18;2.25;;;;;;;;;;4989468;28;94034;-76
2023/07/10 05:28:34;;;;;;;5.38;2.15;;;;;;;;;;4991204;28;92980;-76
2023/07/10 05:31:02;;;;;;;6.43;2.28;;;;;;;;;;4992571;28;91832;-77
2023/07/10 05:33:29;;;;;;;6.93;2.20;;;;;;;;;;4986710;28;93627;-77
2023/07/10 05:35:57;;;;;;;7.53;2.50;;;;;;;;;;4988135;28;92406;-77
2023/07/10 05:38:25;;;;;;;6.95;2.47;;;;;;;;;;4987518;28;95197;-77
2023/07/10 05:40:52;;;;;;;9.35;2.90;;;;;;;;;;4987958;28;93630;-77
2023/07/10 05:43:19;;;;;;;7.00;2.42;;;;;;;;;;4988208;28;92523;-77
2023/07/10 05:45:46;;;;;;;7.43;2.80;;;;;;;;;;4984216;28;92738;-77
2023/07/10 05:48:13;;;;;;;9.25;2.67;;;;;;;;;;4984185;28;94187;-77
2023/07/10 05:50:44;;;;;;;7.63;2.22;;;;;;;;;;4988100;28;92456;-77
2023/07/10 05:53:10;;;;;;;7.10;2.30;;;;;;;;;;4989668;28;93938;-77
2023/07/10 05:55:42;;;;;;;8.50;2.35;;;;;;;;;;4996866;28;92417;-77
2023/07/10 05:58:09;;;;;;;6.38;2.10;;;;;;;;;;4970202;28;95212;-77
2023/07/10 06:00:35;;;;;;;10.40;2.70;;;;;;;;;;4980036;28;93210;-77
2023/07/10 06:03:02;;;;;;;4.55;1.98;;;;;;;;;;4986312;28;94897;-77
2023/07/10 06:05:29;;;;;;;5.70;2.05;;;;;;;;;;4987825;28;95083;-76
2023/07/10 06:07:56;;;;;;;7.32;2.75;;;;;;;;;;4987700;28;93237;-77
2023/07/10 06:10:22;;;;;;;5.93;2.22;;;;;;;;;;4993006;28;92838;-77
2023/07/10 06:12:49;;;;;;;6.05;2.30;;;;;;;;;;4971691;28;92791;-77
2023/07/10 06:15:15;;;;;;;8.60;2.70;;;;;;;;;;4990325;28;93642;-76
2023/07/10 06:17:43;;;;;;;7.40;1.85;;;;;;;;;;4991447;28;92850;-77
2023/07/10 06:20:10;;;;;;;6.93;2.20;;;;;;;;;;4991852;28;92964;-77
2023/07/10 06:22:36;;;;;;;5.10;1.95;;;;;;;;;;4993063;28;92871;-77
2023/07/10 06:25:04;;;;;;;9.75;2.13;;;;;;;;;;5000947;28;92935;-78
2023/07/10 06:27:31;;;;;;;7.20;1.80;;;;;;;;;;4979344;28;96750;-78
2023/07/10 06:29:58;;;;;;;7.32;2.00;;;;;;;;;;4992655;28;92447;-75
2023/07/10 06:32:25;;;;;;;7.70;2.20;;;;;;;;;;4990839;28;92780;-78
2023/07/10 06:34:52;;;;;;;6.95;2.10;;;;;;;;;;4993950;28;93193;-77
2023/07/10 06:37:18;;;;;;;5.60;2.10;;;;;;;;;;4992944;28;93405;-77
2023/07/10 06:40:02;;;;;;;6.32;1.92;;;;;;;;;;4994825;28;93091;-77
2023/07/10 06:42:29;;;;;;;7.30;1.88;;;;;;;;;;5001521;28;93822;-77
2023/07/10 06:44:55;;;;;;;7.38;1.80;;;;;;;;;;4991264;28;92865;-77
2023/07/10 06:47:22;;;;;;;6.07;1.95;;;;;;;;;;4989362;28;93482;-77
2023/07/10 06:49:49;;;;;;;6.28;1.83;;;;;;;;;;4991232;28;92938;-77
2023/07/10 06:52:15;;;;;;;4.22;1.70;;;;;;;;;;4989471;28;94910;-76
2023/07/10 06:54:42;;;;;;;6.82;1.77;;;;;;;;;;4990854;28;93665;-76
2023/07/10 06:57:08;;;;;;;7.15;1.90;;;;;;;;;;4994723;28;92853;-76
2023/07/10 06:59:35;;;;;;;7.22;1.77;;;;;;;;;;4989142;28;93067;-76
2023/07/10 07:02:01;;;;;;;10.43;2.53;;;;;;;;;;4991052;28;92576;-76
2023/07/10 07:04:30;;;;;;;8.57;1.90;;;;;;;;;;4989301;28;92742;-76
2023/07/10 07:06:57;;;;;;;7.05;1.80;;;;;;;;;;4988928;28;93289;-78
2023/07/10 07:09:24;;;;;;;;;;;;;;;;;;4987638;28;93985;-75
2023/07/10 07:11:50;;;;;;;7.55;1.83;;;;;;;;;;4998899;28;110726;-76
2023/07/10 07:14:17;;;;;;;8.05;2.00;;;;;;;;;;4990764;28;92934;-75
2023/07/10 07:16:43;;;;;;;6.93;1.60;;;;;;;;;;4987421;28;94830;-75
2023/07/10 07:19:10;;;;;;;6.13;1.88;;;;;;;;;;4993034;28;95686;-78
2023/07/10 07:21:38;;;;;;;6.35;1.90;;;;;;;;;;4989922;28;92462;-76
2023/07/10 07:24:05;;;;;;;6.03;1.60;;;;;;;;;;4989836;28;93845;-76
2023/07/10 07:26:31;;;;;;;6.55;1.77;;;;;;;;;;4990058;28;95963;-76
2023/07/10 07:28:58;;;;;;;6.70;1.90;;;;;;;;;;4988773;28;93205;-76
2023/07/10 07:31:24;;;;;;;8.77;2.35;;;;;;;;;;4991122;28;92984;-76
2023/07/10 07:33:51;;;;;;;9.18;1.80;;;;;;;;;;4990301;28;94707;-76
2023/07/10 07:36:17;;;;;;;6.88;1.70;;;;;;;;;;4988346;28;92655;-75
2023/07/10 07:38:44;;;;;;;7.05;1.90;;;;;;;;;;4987525;28;93408;-76
2023/07/10 07:41:11;;;;;;;8.15;1.88;;;;;;;;;;4980645;28;95827;-76
2023/07/10 07:43:37;;;;;;;11.20;2.90;;;;;;;;;;4976022;28;95226;-77
2023/07/10 07:46:04;;;;;;;8.40;2.50;;;;;;;;;;4965354;28;95123;-76
2023/07/10 07:48:32;;;;;;;10.13;2.70;;;;;;;;;;4976621;28;92656;-77
2023/07/10 07:50:58;;;;;;;10.57;2.38;;;;;;;;;;4970429;28;94150;-76
2023/07/10 07:53:26;;;;;;;11.52;2.58;;;;;;;;;;4977399;28;93028;-76
2023/07/10 07:55:52;;;;;;;;;;;;;;;;;;4993511;28;92496;-77
2023/07/10 07:58:19;;;;;;;7.88;2.10;;;;;;;;;;4987282;28;113764;-77
2023/07/10 08:00:45;;;;;;;8.43;2.17;;;;;;;;;;4983279;28;93125;-77
2023/07/10 08:03:12;;;;;;;8.63;2.40;;;;;;;;;;4989857;28;92480;-76
2023/07/10 08:05:39;;;;;;;7.93;2.10;;;;;;;;;;4995407;28;96046;-77
2023/07/10 08:08:06;;;;;;;9.55;2.45;;;;;;;;;;4997269;28;92550;-77
2023/07/10 08:10:40;;;;;;;13.25;2.67;;;;;;;;;;4984181;28;93102;-78
2023/07/10 08:13:08;;;;;;;7.45;1.95;;;;;;;;;;5009666;28;93603;-79
2023/07/10 08:15:35;;;;;;;8.20;2.10;;;;;;;;;;5011790;28;92493;-77
2023/07/10 08:18:01;;;;;;;9.30;2.00;;;;;;;;;;4995596;28;92780;-78
2023/07/10 08:20:28;;;;;;;9.10;2.00;;;;;;;;;;4982736;28;94302;-77
2023/07/10 08:22:54;;;;;;;9.57;2.63;;;;;;;;;;4998661;28;92287;-78
2023/07/10 08:25:21;;;;;;;10.55;2.60;;;;;;;;;;4996868;28;92809;-75
2023/07/10 08:27:48;;;;;;;7.82;2.20;;;;;;;;;;4992776;28;92457;-78
2023/07/10 08:30:15;;;;;;;10.68;2.78;;;;;;;;;;4978179;28;94804;-77
2023/07/10 08:32:41;;;;;;;11.02;2.35;;;;;;;;;;4968698;28;95348;-78
2023/07/10 08:35:08;;;;;;;9.38;1.92;;;;;;;;;;4968704;28;93174;-78
2023/07/10 08:37:38;;;;;;;7.43;1.92;;;;;;;;;;4984275;28;93030;-79
2023/07/10 08:40:05;;;;;;;8.27;2.10;;;;;;;;;;4978403;28;93653;-78
2023/07/10 08:42:32;;;;;;;9.55;2.10;;;;;;;;;;4983788;28;92563;-79
2023/07/10 08:45:00;;;;;;;6.70;1.80;;;;;;;;;;4972551;28;93168;-79
2023/07/10 08:47:36;;;;;;;8.93;2.08;;;;;;;;;;4969563;28;91758;-78
2023/07/10 08:50:06;;;;;;;9.05;1.80;;;;;;;;;;4968893;28;92380;-78
2023/07/10 08:52:33;;;;;;;10.77;1.90;;;;;;;;;;4985186;28;94204;-78
2023/07/10 08:54:59;;;;;;;7.47;1.90;;;;;;;;;;4993783;28;95704;-78
2023/07/10 08:57:31;;;;;;;7.95;2.08;;;;;;;;;;4994178;28;95978;-76
2023/07/10 08:59:57;;;;;;;8.95;1.90;;;;;;;;;;4995517;28;93218;-76
2023/07/10 09:02:37;;;;;;;6.75;1.88;;;;;;;;;;4986069;28;92495;-76
2023/07/10 09:05:05;;;;;;;6.28;1.60;;;;;;;;;;4986622;28;95556;-78
2023/07/10 09:07:42;;;;;;;5.30;1.70;;;;;;;;;;4991733;28;93121;-78
2023/07/10 09:10:15;;;;;;;7.93;1.80;;;;;;;;;;4988378;28;95006;-76
2023/07/10 09:12:43;;;;;;;6.70;1.80;;;;;;;;;;4991043;28;91624;-79
2023/07/10 09:15:13;;;;;;;7.22;1.90;;;;;;;;;;4993573;28;92406;-76
2023/07/10 09:17:39;;;;;;;6.80;1.95;;;;;;;;;;4982131;28;92805;-77
2023/07/10 09:20:08;;;;;;;5.82;1.80;;;;;;;;;;4985867;28;95366;-76
2023/07/10 09:22:36;;;;;;;7.75;1.80;;;;;;;;;;4973717;28;92649;-77
2023/07/10 09:25:11;;;;;;;7.55;1.73;;;;;;;;;;4966139;28;93919;-77
2023/07/10 09:27:40;;;;;;;5.65;1.90;;;;;;;;;;4968254;28;93076;-77
2023/07/10 09:30:18;;;;;;;5.60;1.73;;;;;;;;;;4974439;28;92705;-77
2023/07/10 09:32:44;;;;;;;7.57;1.83;;;;;;;;;;4976567;28;93064;-78
2023/07/10 09:35:15;;;;;;;7.88;2.00;;;;;;;;;;4968757;28;92416;-77
2023/07/10 09:37:47;;;;;;;7.13;1.80;;;;;;;;;;4987708;28;91757;-77
2023/07/10 09:40:27;;;;;;;6.80;1.63;;;;;;;;;;4987365;28;92473;-77
2023/07/10 09:43:00;;;;;;;5.40;1.75;;;;;;;;;;4985973;28;92433;-77
2023/07/10 09:45:31;;;;;;;6.68;1.60;;;;;;;;;;4973180;28;95544;-77
2023/07/10 09:47:58;;;;;;;7.40;1.95;;;;;;;;;;4991305;28;93065;-78
2023/07/10 09:50:25;;;;;;;6.38;1.83;;;;;;;;;;4991406;28;92425;-78
2023/07/10 09:52:52;;;;;;;7.00;1.80;;;;;;;;;;4994363;28;92861;-78
2023/07/10 09:55:19;;;;;;;8.82;2.05;;;;;;;;;;4974648;28;92574;-77
2023/07/10 09:58:02;;;;;;;6.28;1.63;;;;;;;;;;4977089;28;93002;-77
2023/07/10 10:00:29;;;;;;;7.70;1.80;;;;;;;;;;4975046;28;92968;-79
2023/07/10 10:03:02;;;;;;;6.00;1.70;;;;;;;;;;4992414;28;92015;-76
2023/07/10 10:05:29;;;;;;;6.75;1.92;;;;;;;;;;4990968;28;92681;-77
2023/07/10 10:08:04;;;;;;;5.72;1.60;;;;;;;;;;4988931;28;94709;-77
2023/07/10 10:10:33;;;;;;;6.50;1.77;;;;;;;;;;4988374;28;95019;-77
2023/07/10 10:13:02;;;;;;;6.38;1.80;;;;;;;;;;4991386;28;95174;-77
2023/07/10 10:15:50;;;;;;;6.15;1.65;;;;;;;;;;4994060;28;92967;-77
2023/07/10 10:18:39;;;;;;;6.57;1.80;;;;;;;;;;4973614;28;92671;-78
2023/07/10 10:21:09;;;;;;;7.65;1.70;;;;;;;;;;4990587;28;93472;-79
2023/07/10 10:23:37;;;;;;;10.13;2.25;;;;;;;;;;4973755;28;92756;-79
2023/07/10 10:26:22;;;;;;;7.93;1.80;;;;;;;;;;4969998;28;92566;-79
2023/07/10 10:28:49;;;;;;;;;;;;;;;;;;4983301;28;93024;-79
2023/07/10 10:31:18;;;;;;;7.43;1.80;;;;;;;;;;4972014;28;95831;-78
2023/07/10 10:34:04;;;;;;;6.10;1.73;;;;;;;;;;4974653;28;94167;-78
2023/07/10 10:36:37;;;;;;;6.82;1.50;;;;;;;;;;4957290;28;96192;-78
2023/07/10 10:39:20;;;;;;;6.38;1.73;;;;;;;;;;4974836;28;92504;-78
2023/07/10 10:41:50;;;;;;;7.32;1.80;;;;;;;;;;4983547;28;93015;-78
2023/07/10 10:44:16;;;;;;;5.50;1.40;;;;;;;;;;4970831;28;92556;-78
2023/07/10 10:46:58;;;;;;;5.82;1.65;;;;;;;;;;4990532;28;95569;-78
2023/07/10 10:49:25;;;;;;;5.25;1.67;;;;;;;;;;4983507;28;93853;-78
2023/07/10 10:52:00;;;;;;;7.55;1.73;;;;;;;;;;4973927;28;92542;-78
2023/07/10 10:54:26;;;;;;;5.55;1.50;;;;;;;;;;4979737;28;93757;-79
2023/07/10 10:56:59;;;;;;;;;;;;;;;;;;4985847;28;93459;-78
2023/07/10 10:59:46;;;;;;;8.35;1.50;;;;;;;;;;4978450;28;94716;-77
2023/07/10 11:02:36;;;;;;;7.43;1.50;;;;;;;;;;4966883;28;95498;-77
2023/07/10 11:05:09;;;;;;;5.40;1.45;;;;;;;;;;4979024;28;94518;-78
2023/07/10 11:07:37;;;;;;;7.22;1.55;;;;;;;;;;4990526;28;92634;-77
2023/07/10 11:10:10;;;;;;;5.25;1.50;;;;;;;;;;4990535;28;93116;-77
2023/07/10 11:12:37;;;;;;;4.68;1.50;;;;;;;;;;4996180;28;92590;-77
2023/07/10 11:15:11;;;;;;;7.85;1.70;;;;;;;;;;4971384;28;93889;-77
2023/07/10 11:17:38;;;;;;;5.88;1.45;;;;;;;;;;4989802;28;93088;-77
2023/07/10 11:20:05;;;;;;;4.60;1.40;;;;;;;;;;4990705;28;92559;-77
2023/07/10 11:22:32;;;;;;;;;;;;;;;;;;4975469;28;94132;-77
2023/07/10 11:25:01;;;;;;;6.47;1.50;;;;;;;;;;4990660;28;92794;-78
2023/07/10 11:27:28;;;;;;;8.18;1.40;;;;;;;;;;4997484;28;94880;-77
2023/07/10 11:29:56;;;;;;;4.13;1.30;;;;;;;;;;4987925;28;95672;-78
2023/07/10 11:32:24;;;;;;;4.15;1.23;;;;;;;;;;4990221;28;92871;-79
2023/07/10 11:34:56;;;;;;;5.35;1.33;;;;;;;;;;4989493;28;92765;-77
2023/07/10 11:37:41;;;;;;;4.35;1.23;;;;;;;;;;4973507;28;93182;-78
2023/07/10 11:40:23;;;;;;;5.57;1.42;;;;;;;;;;4975334;28;93199;-77
2023/07/10 11:42:50;;;;;;;4.45;1.42;;;;;;;;;;4980147;28;92763;-79
2023/07/10 11:45:16;;;;;;;5.88;1.50;;;;;;;;;;4993243;28;92724;-78
2023/07/10 11:47:44;;;;;;;5.95;1.48;;;;;;;;;;4990263;28;93033;-77
2023/07/10 11:50:16;;;;;;;5.90;1.30;;;;;;;;;;4990234;28;93170;-77
2023/07/10 11:52:42;;;;;;;5.07;1.30;;;;;;;;;;4987380;28;94917;-78
2023/07/10 11:55:13;;;;;;;4.18;1.33;;;;;;;;;;4990576;28;95363;-79
2023/07/10 11:57:39;;;;;;;4.20;1.25;;;;;;;;;;4997969;28;94352;-79
2023/07/10 12:00:12;;;;;;;5.95;1.58;;;;;;;;;;4989538;28;92911;-79
2023/07/10 12:02:48;;;;;;;5.55;1.50;;;;;;;;;;4986388;28;92499;-79
2023/07/10 12:05:17;;;;;;;8.02;1.50;;;;;;;;;;4983142;28;92549;-79
2023/07/10 12:07:49;;;;;;;5.05;1.35;;;;;;;;;;4979460;28;92885;-78
2023/07/10 12:10:16;;;;;;;8.02;1.80;;;;;;;;;;4950536;28;92399;-79
2023/07/10 12:12:43;;;;;;;6.30;1.50;;;;;;;;;;4960321;28;92835;-79
2023/07/10 12:15:10;;;;;;;6.00;1.50;;;;;;;;;;4949863;28;92841;-79
2023/07/10 12:17:38;;;;;;;5.85;1.52;;;;;;;;;;4947136;28;96480;-79
2023/07/10 12:20:19;;;;;;;7.13;1.63;;;;;;;;;;4947837;28;92516;-79
2023/07/10 12:22:46;;;;;;;5.70;1.45;;;;;;;;;;4950282;28;93334;-79
2023/07/10 12:25:14;;;;;;;6.63;1.70;;;;;;;;;;4944716;28;93002;-78
2023/07/10 12:27:41;;;;;;;6.55;1.80;;;;;;;;;;4941683;28;92733;-79
2023/07/10 12:30:23;;;;;;;5.75;1.50;;;;;;;;;;4953386;28;93902;-78
2023/07/10 12:32:51;;;;;;;6.57;1.80;;;;;;;;;;4949831;28;93036;-79
2023/07/10 12:35:31;;;;;;;6.13;1.70;;;;;;;;;;4936134;28;92931;-79
2023/07/10 12:37:59;;;;;;;7.82;1.70;;;;;;;;;;4930364;28;93459;-79
2023/07/10 12:40:26;;;;;;;5.43;1.50;;;;;;;;;;4937119;28;93075;-79
2023/07/10 12:42:53;;;;;;;4.57;1.50;;;;;;;;;;4941869;28;94785;-80
2023/07/10 12:45:30;;;;;;;5.82;1.65;;;;;;;;;;4929085;28;93104;-79
2023/07/10 12:48:02;;;;;;;5.60;1.30;;;;;;;;;;4936244;28;92496;-79
2023/07/10 12:50:34;;;;;;;9.75;1.70;;;;;;;;;;4933014;28;93529;-79
2023/07/10 12:53:02;;;;;;;4.75;1.35;;;;;;;;;;4934126;28;92694;-79
2023/07/10 12:55:31;;;;;;;5.20;1.48;;;;;;;;;;4932340;28;93544;-79
2023/07/10 12:57:58;;;;;;;6.75;1.60;;;;;;;;;;4953967;28;94486;-79
2023/07/10 13:00:38;;;;;;;5.53;1.45;;;;;;;;;;4949993;28;92213;-79
2023/07/10 13:03:17;;;;;;;6.05;1.52;;;;;;;;;;4946643;28;92967;-79
2023/07/10 13:05:45;;;;;;;;;;;;;;;;;;4947843;28;93372;-79
2023/07/10 13:08:12;;;;;;;5.10;1.42;;;;;;;;;;4953807;28;94988;-78
2023/07/10 13:10:40;;;;;;;5.35;1.40;;;;;;;;;;4989956;28;95586;-78
2023/07/10 13:13:12;;;;;;;5.22;1.60;;;;;;;;;;4991902;28;96011;-78
2023/07/10 13:15:39;;;;;;;6.53;1.70;;;;;;;;;;4976913;28;94372;-78
2023/07/10 13:18:15;;;;;;;7.38;1.60;;;;;;;;;;5006362;28;96077;-77
2023/07/10 13:20:42;;;;;;;7.57;1.63;;;;;;;;;;4988160;28;92786;-78
2023/07/10 13:23:09;;;;;;;6.75;1.70;;;;;;;;;;4989383;28;93055;-78
2023/07/10 13:25:35;;;;;;;6.35;1.63;;;;;;;;;;4992832;28;93453;-78
2023/07/10 13:28:15;;;;;;;6.20;1.77;;;;;;;;;;4994064;28;92523;-78
2023/07/10 13:30:44;;;;;;;7.15;1.60;;;;;;;;;;4987318;28;92673;-79
2023/07/10 13:33:25;;;;;;;6.10;1.60;;;;;;;;;;4986704;28;96619;-78
2023/07/10 13:35:58;;;;;;;5.72;1.70;;;;;;;;;;4990122;28;92506;-78
2023/07/10 13:38:25;;;;;;;6.32;1.42;;;;;;;;;;4988522;28;93126;-79
2023/07/10 13:40:52;;;;;;;;;;;;;;;;;;4991179;28;92520;-79
2023/07/10 13:43:19;;;;;;;6.38;1.50;;;;;;;;;;4996392;28;94756;-78
2023/07/10 13:45:51;;;;;;;5.72;1.73;;;;;;;;;;4968266;28;93086;-81
2023/07/10 13:48:18;;;;;;;10.15;1.90;;;;;;;;;;4969953;28;92512;-79
2023/07/10 13:50:45;;;;;;;7.47;1.90;;;;;;;;;;4971054;28;92916;-87
2023/07/10 13:53:13;;;;;;;10.18;1.80;;;;;;;;;;4984994;28;93130;-80
2023/07/10 13:55:40;;;;;;;10.27;1.98;;;;;;;;;;4975722;28;92420;-80
2023/07/10 13:58:14;;;;;;;11.13;2.10;;;;;;;;;;4980021;28;95347;-79
2023/07/10 14:00:41;;;;;;;7.03;1.70;;;;;;;;;;4979743;28;92530;-80
2023/07/10 14:03:09;;;;;;;5.55;1.55;;;;;;;;;;4977078;28;92633;-80
2023/07/10 14:05:36;;;;;;;7.93;1.63;;;;;;;;;;4984244;28;93275;-80
2023/07/10 14:08:09;;;;;;;6.03;1.67;;;;;;;;;;4986937;28;92568;-80
2023/07/10 14:10:36;;;;;;;6.25;1.48;;;;;;;;;;4985115;28;93224;-80
2023/07/10 14:13:04;;;;;;;5.88;1.63;;;;;;;;;;4962271;28;94956;-80
2023/07/10 14:15:30;;;;;;;6.60;1.60;;;;;;;;;;4973980;28;92805;-80
2023/07/10 14:17:57;;;;;;;7.10;1.60;;;;;;;;;;4986894;28;92503;-80
2023/07/10 14:20:24;;;;;;;7.43;1.52;;;;;;;;;;4990932;28;92958;-79
2023/07/10 14:22:50;;;;;;;5.60;1.50;;;;;;;;;;4979721;28;94867;-79
2023/07/10 14:25:17;;;;;;;8.82;1.70;;;;;;;;;;4986793;28;93558;-79
2023/07/10 14:27:45;;;;;;;9.38;1.85;;;;;;;;;;4981961;28;93117;-79
2023/07/10 14:30:16;;;;;;;6.30;1.77;;;;;;;;;;4968182;28;92978;-80
2023/07/10 14:32:43;;;;;;;8.77;1.60;;;;;;;;;;4976217;28;92357;-79
2023/07/10 14:35:15;;;;;;;8.07;1.75;;;;;;;;;;4976904;28;92563;-80
2023/07/10 14:37:42;;;;;;;7.85;1.75;;;;;;;;;;4975981;28;92623;-80
2023/07/10 14:40:10;;;;;;;9.57;2.15;;;;;;;;;;4971310;28;92485;-78
2023/07/10 14:42:36;;;;;;;6.05;1.70;;;;;;;;;;4981669;28;92483;-77
2023/07/10 14:45:03;;;;;;;7.35;1.88;;;;;;;;;;4989334;28;93096;-80
2023/07/10 14:47:34;;;;;;;7.15;1.85;;;;;;;;;;4985701;28;95283;-78
2023/07/10 14:50:03;;;;;;;8.60;1.80;;;;;;;;;;4974133;28;95089;-79
2023/07/10 14:52:31;;;;;;;8.38;2.17;;;;;;;;;;4989631;28;94143;-80
2023/07/10 14:54:59;;;;;;;8.60;1.77;;;;;;;;;;4981834;28;92505;-80